Immokalee, Florida
Current Conditions -  °F | °C
As of 1:35 PM on Friday 28 Nov 2014 (Local Time) from KIMM Reporting Station
Clear Clear  
Wind Chill: 68°   Ceiling: Unl
Heat Index: 68°   Visibility: 8mi
Dew Point: 34°   Wind: 12mph
Humidity: 28%   Direction: 20°NNE
Pressure: 30.23"   Gusts: 18mph
Location:  26.42°N, 81.42°W
Report Text: KIMM 281835Z AUTO 02010G16KT 8SM CLR 20/01 A3023 RMK A01 P000
Loading
Personal Weather Stations






























Interactive Weather Map New forecast layout! Learn more

10-Day Weather Forecast

Advertisements
Track Severe Weather on mobile